Impacts METAR Board
IDs:

KISM - Kissimmee Muni, FL, US

Updated at: 1700 UTC 03 Dec 2021
Potential Impact None Slight Moderate High
Time 03/05Z 03/06Z 03/07Z 03/08Z 03/09Z 03/10Z 03/11Z 03/12Z 03/13Z 03/14Z 03/15Z 03/16Z 03/17Z
Temp55 53 52 52 50 50 50 51 53 62 68 71 73
Dewpt51 50 50 49 48 49 48 49 52 56 56 55 54
Altim30.16 30.15 30.15 30.14 30.14 30.13 30.13 30.13 30.15 30.16 30.18 30.18 30.16
VIS10 10 10 10 10 10 10 10 10 10 10 10 10
CIG-- -- -- -- -- -- -- -- -- -- -- -- --
CoverCLRCLRCLRCLRCLRCLRCLRCLRCLRCLRCLRCLRCLR
FltCatVFRVFRVFRVFRVFRVFRVFRVFRVFRVFRVFRVFRVFR
WX--------------------------
WDir000000003101001010
WSpd0 0 0 0 0 0 0 0 3 6 5 8 8
WGst-- -- -- -- -- -- -- -- -- -- -- -- --
Raw hourly METARs
KISM 030456Z AUTO 00000KT 10SM CLR 13/11 A3016 RMK AO2 SLP212 T01280106 402390122 PNO $
KISM 030556Z AUTO 00000KT 10SM CLR 12/10 A3015 RMK AO2 SLP210 6//// T01170100 10172 20117 58003 PNO $
KISM 030656Z AUTO 00000KT 10SM CLR 11/10 A3015 RMK AO2 SLP210 T01110100 PNO $
KISM 030756Z AUTO 00000KT 10SM CLR 11/09 A3014 RMK AO2 SLP206 T01110094 PNO $
KISM 030856Z AUTO 00000KT 10SM CLR 10/09 A3014 RMK AO2 SLP205 6//// T01000089 58004 PNO $
KISM 030956Z AUTO 00000KT 10SM CLR 10/09 A3013 RMK AO2 SLP204 T01000094 PNO $
KISM 031056Z AUTO 00000KT 10SM CLR 10/09 A3013 RMK AO2 SLP204 T01000089 PNO $
KISM 031156Z 00000KT 10SM CLR 11/09 A3013 RMK AO2 SLP204 6//// 7//// T01060094 10117 20094 55001 PNO $
KISM 031256Z 31003KT 10SM CLR 12/11 A3015 RMK AO2 SLP211 T01170111 PNO $
KISM 031356Z 01006KT 10SM CLR 17/13 A3016 RMK AO2 SLP213 T01670133 PNO $
KISM 031456Z VRB05KT 10SM CLR 20/13 A3018 RMK AO2 SLP221 6//// T02000133 53016 PNO $
KISM 031556Z 01008KT 10SM CLR 22/13 A3018 RMK AO2 SLP219 T02170128 PNO $
KISM 031656Z 01008KT 10SM CLR 23/12 A3016 RMK AO2 SLP212 T02280122 PNO $



Page loaded:  17:05 UTC  |   09:05 AM Pacific  |   10:05 AM Mountain  |   11:05 AM Central  |   12:05 PM Eastern

 

ADVISORIES

FORECASTS

FORECASTS

OBSERVATIONS

USER TOOLS

ABOUT US